createdAt,value
2019-04-14T00:04:20.292Z,25.68
2019-04-14T00:09:25.160Z,25.81
2019-04-14T00:14:29.357Z,25.81
2019-04-14T00:19:33.019Z,24.91
2019-04-14T00:24:36.580Z,24.73
2019-04-14T00:29:41.352Z,24.18
2019-04-14T00:35:03.899Z,23.75
2019-04-14T00:40:10.426Z,23.46
2019-04-14T00:45:40.459Z,23.08
2019-04-14T00:50:36.619Z,22.28
2019-04-14T00:55:40.199Z,21.10
2019-04-14T01:00:45.045Z,20.82
2019-04-14T01:05:48.746Z,20.66
2019-04-14T01:10:52.359Z,20.49
2019-04-14T01:16:03.977Z,20.29
2019-04-14T01:21:02.414Z,20.18
2019-04-14T01:26:07.205Z,20.18
2019-04-14T01:31:11.882Z,20.96
2019-04-14T01:36:16.932Z,22.44
2019-04-14T01:41:21.682Z,23.38
2019-04-14T01:46:28.370Z,24.44
2019-04-14T01:51:41.741Z,24.74
2019-04-14T01:57:04.604Z,24.62
2019-04-14T02:02:09.791Z,23.97
2019-04-14T02:07:14.504Z,23.29
2019-04-14T02:12:19.210Z,22.84
2019-04-14T02:17:24.104Z,22.58
2019-04-14T02:22:28.829Z,21.99
2019-04-14T02:27:33.867Z,21.13
2019-04-14T02:33:05.377Z,20.57
2019-04-14T02:38:14.284Z,20.34
2019-04-14T02:48:38.380Z,20.14
2019-04-14T02:53:27.147Z,20.00
2019-04-14T02:58:38.462Z,19.93
2019-04-14T03:08:55.062Z,20.92
2019-04-14T03:13:51.101Z,22.11
2019-04-14T03:19:06.752Z,23.24
2019-04-14T03:24:15.850Z,24.18
2019-04-14T03:29:36.455Z,24.05
2019-04-14T03:34:58.155Z,23.69
2019-04-14T03:44:41.531Z,22.39
2019-04-14T03:49:48.437Z,22.11
2019-04-14T03:54:44.399Z,21.36
2019-04-14T03:59:30.319Z,21.17
2019-04-14T04:04:33.973Z,20.31
2019-04-14T04:09:39.133Z,20.24
2019-04-14T04:14:42.715Z,20.17
2019-04-14T04:19:51.398Z,19.98
2019-04-14T04:25:00.781Z,19.86
2019-04-14T04:30:23.877Z,19.64
2019-04-14T04:35:32.545Z,19.61
2019-04-14T04:40:37.483Z,19.66
2019-04-14T04:45:41.229Z,20.33
2019-04-14T04:50:45.351Z,21.71
2019-04-14T04:55:50.271Z,22.77
2019-04-14T05:00:55.723Z,23.45
2019-04-14T05:06:09.309Z,24.11
2019-04-14T05:11:20.911Z,23.75
2019-04-14T05:16:24.540Z,23.13
2019-04-14T05:21:28.142Z,22.94
2019-04-14T05:26:33.011Z,22.48
2019-04-14T05:31:36.776Z,22.03
2019-04-14T05:36:41.150Z,21.62
2019-04-14T05:41:56.849Z,21.31
2019-04-14T05:46:51.297Z,20.84
2019-04-14T05:51:55.060Z,20.23
2019-04-14T05:56:58.643Z,20.00
2019-04-14T06:02:02.640Z,19.87
2019-04-14T06:07:06.292Z,19.69
2019-04-14T06:12:09.923Z,19.71
2019-04-14T06:17:13.478Z,19.56
2019-04-14T06:22:17.079Z,19.52
2019-04-14T06:27:20.639Z,20.02
2019-04-14T06:32:37.977Z,21.05
2019-04-14T06:37:49.279Z,22.57
2019-04-14T06:42:52.945Z,23.37
2019-04-14T06:47:57.123Z,24.43
2019-04-14T06:53:00.720Z,24.48
2019-04-14T06:58:04.725Z,24.58
2019-04-14T07:03:08.335Z,24.42
2019-04-14T07:08:11.924Z,24.65
2019-04-14T07:13:15.494Z,24.34
2019-04-14T07:18:20.617Z,24.21
2019-04-14T07:23:24.226Z,23.73
2019-04-14T07:28:27.796Z,23.39
2019-04-14T07:33:35.992Z,23.15
2019-04-14T07:38:43.907Z,22.85
2019-04-14T07:44:01.656Z,22.59
2019-04-14T07:49:23.295Z,22.23
2019-04-14T07:54:31.453Z,21.91
2019-04-14T07:59:55.442Z,21.73
2019-04-14T08:05:00.566Z,21.43
2019-04-14T08:10:07.597Z,21.41
2019-04-14T08:15:11.558Z,21.10
2019-04-14T08:20:26.695Z,21.05
2019-04-14T08:25:20.841Z,20.95
2019-04-14T08:30:24.455Z,20.99
2019-04-14T08:35:28.022Z,21.24
2019-04-14T08:40:31.648Z,21.24
2019-04-14T08:45:36.783Z,21.91
2019-04-14T08:50:41.942Z,22.46
2019-04-14T08:55:56.006Z,24.60
2019-04-14T09:01:03.949Z,24.16
2019-04-14T09:06:25.352Z,23.97
2019-04-14T09:11:36.369Z,23.87
2019-04-14T09:16:39.996Z,23.30
2019-04-14T09:21:43.562Z,23.06
2019-04-14T09:26:47.246Z,23.06
2019-04-14T09:31:51.128Z,22.58
2019-04-14T09:36:54.738Z,22.33
2019-04-14T09:41:58.300Z,22.14
2019-04-14T09:47:01.915Z,22.01
2019-04-14T09:52:05.489Z,21.97
2019-04-14T09:57:09.065Z,21.72
2019-04-14T10:02:12.683Z,21.56
2019-04-14T10:07:16.253Z,21.42
2019-04-14T10:12:19.872Z,21.21
2019-04-14T10:17:23.446Z,21.08
2019-04-14T10:22:33.801Z,21.05
2019-04-14T10:27:32.365Z,20.94
2019-04-14T10:32:35.979Z,20.70
2019-04-14T10:37:39.542Z,20.57
2019-04-14T10:42:43.162Z,20.43
2019-04-14T10:47:46.725Z,20.34
2019-04-14T10:52:50.996Z,20.54
2019-04-14T10:57:54.557Z,20.76
2019-04-14T11:02:58.163Z,20.91
2019-04-14T11:08:01.742Z,21.24
2019-04-14T11:13:05.346Z,22.95
2019-04-14T11:18:09.024Z,24.53
2019-04-14T11:23:13.623Z,25.06
2019-04-14T11:28:17.419Z,25.14
2019-04-14T11:33:37.661Z,24.97
2019-04-14T11:38:45.862Z,24.94
2019-04-14T11:43:49.473Z,24.56
2019-04-14T11:48:53.019Z,24.07
2019-04-14T11:53:56.635Z,23.96
2019-04-14T11:59:00.499Z,23.75
2019-04-14T12:04:16.099Z,23.60
2019-04-14T12:09:24.332Z,23.21
2019-04-14T12:14:27.980Z,23.02
2019-04-14T12:19:31.626Z,22.81
2019-04-14T12:24:35.247Z,22.58
2019-04-14T12:29:39.090Z,22.25
2019-04-14T12:34:42.901Z,22.03
2019-04-14T12:39:46.471Z,21.81
2019-04-14T12:45:07.680Z,21.62
2019-04-14T12:50:27.943Z,21.39
2019-04-14T12:55:31.500Z,21.22
2019-04-14T13:00:39.620Z,21.03
2019-04-14T13:05:43.447Z,20.80
2019-04-14T13:10:47.278Z,20.69
2019-04-14T13:15:51.001Z,20.63
2019-04-14T13:20:54.619Z,20.62
2019-04-14T13:25:58.234Z,20.60
2019-04-14T13:31:01.797Z,20.62
2019-04-14T13:36:05.438Z,20.60
2019-04-14T13:41:08.991Z,20.77
2019-04-14T13:46:12.601Z,21.04
2019-04-14T13:51:16.165Z,21.36
2019-04-14T13:56:19.800Z,21.89
2019-04-14T14:01:23.323Z,22.30
2019-04-14T14:06:27.271Z,22.26
2019-04-14T14:11:35.417Z,22.24
2019-04-14T14:16:40.583Z,22.15
2019-04-14T14:21:48.601Z,22.02
2019-04-14T14:26:56.830Z,21.86
2019-04-14T14:32:02.081Z,21.80
2019-04-14T14:37:05.761Z,21.70
2019-04-14T14:42:09.430Z,21.57
2019-04-14T14:47:17.553Z,21.49
2019-04-14T14:52:21.991Z,21.43
2019-04-14T14:57:25.935Z,21.32
2019-04-14T15:02:29.553Z,21.19
2019-04-14T15:07:33.186Z,21.19
2019-04-14T15:12:38.368Z,21.11
2019-04-14T15:17:42.166Z,21.05
2019-04-14T15:22:46.363Z,20.99
2019-04-14T15:27:50.866Z,20.90
2019-04-14T15:32:54.855Z,20.81
2019-04-14T15:37:58.455Z,20.79
2019-04-14T15:43:02.239Z,20.88
2019-04-14T15:48:05.870Z,20.85
2019-04-14T15:53:09.563Z,20.89
2019-04-14T15:58:14.738Z,21.05
2019-04-14T16:03:19.871Z,21.43
2019-04-14T16:08:40.146Z,21.76
2019-04-14T16:13:45.928Z,22.85
2019-04-14T16:18:51.539Z,22.77
2019-04-14T16:23:57.349Z,22.70
2019-04-14T16:34:45.462Z,22.21
2019-04-14T16:39:49.050Z,22.04
2019-04-14T16:44:52.603Z,21.86
2019-04-14T16:49:56.221Z,21.74
2019-04-14T16:55:01.372Z,21.53
2019-04-14T17:00:06.297Z,21.41
2019-04-14T17:05:09.959Z,21.36
2019-04-14T17:10:13.573Z,21.33
2019-04-14T17:15:31.058Z,21.12
2019-04-14T17:20:39.465Z,21.01
2019-04-14T17:25:44.631Z,20.93
2019-04-14T17:31:01.550Z,20.80
2019-04-14T17:36:06.770Z,20.70
2019-04-14T17:41:12.176Z,20.64
2019-04-14T17:46:33.999Z,20.75
2019-04-14T17:51:39.155Z,20.67
2019-04-14T17:57:00.909Z,20.66
2019-04-14T18:02:06.446Z,20.94
2019-04-14T18:07:17.470Z,21.26
2019-04-14T18:12:25.467Z,21.78
2019-04-14T18:17:47.095Z,22.60
2019-04-14T18:22:51.088Z,22.31
2019-04-14T18:27:59.238Z,22.10
2019-04-14T18:33:20.699Z,21.78
2019-04-14T18:38:41.459Z,21.71
2019-04-14T18:43:46.646Z,21.44
2019-04-14T18:48:51.915Z,21.21
2019-04-14T18:53:57.122Z,20.97
2019-04-14T18:59:18.587Z,20.88
2019-04-14T19:04:22.159Z,20.76
2019-04-14T19:09:26.666Z,20.67
2019-04-14T19:14:32.627Z,20.59
2019-04-14T19:19:38.380Z,20.46
2019-04-14T19:24:45.272Z,20.39
2019-04-14T19:29:50.765Z,20.23
2019-04-14T19:34:55.914Z,20.22
2019-04-14T19:40:02.004Z,20.24
2019-04-14T19:45:07.714Z,20.17
2019-04-14T19:50:11.899Z,20.23
2019-04-14T19:55:20.499Z,20.16
2019-04-14T20:00:23.314Z,20.01
2019-04-14T20:05:27.521Z,19.91
2019-04-14T20:10:32.008Z,20.13
2019-04-14T20:15:37.876Z,20.62
2019-04-14T20:21:00.526Z,20.80
2019-04-14T20:26:25.125Z,20.90
2019-04-14T20:31:39.564Z,20.87
2019-04-14T20:36:43.262Z,20.86
2019-04-14T20:41:46.932Z,20.81
2019-04-14T20:46:50.581Z,20.59
2019-04-14T20:51:54.264Z,20.37
2019-04-14T20:56:57.808Z,20.24
2019-04-14T21:02:19.494Z,20.13
2019-04-14T21:07:41.087Z,19.99
2019-04-14T21:12:46.296Z,19.95
2019-04-14T21:18:03.521Z,19.84
2019-04-14T21:23:20.554Z,19.77
2019-04-14T21:28:44.147Z,19.98
2019-04-14T21:33:55.440Z,20.42
2019-04-14T21:39:01.460Z,20.93
2019-04-14T21:44:05.300Z,22.23
2019-04-14T21:49:08.964Z,22.91
2019-04-14T21:54:12.666Z,22.32
2019-04-14T21:59:17.831Z,21.84
2019-04-14T22:04:29.052Z,21.52
2019-04-14T22:09:34.176Z,21.07
2019-04-14T22:14:38.020Z,20.85
2019-04-14T22:19:41.610Z,20.68
2019-04-14T22:24:45.188Z,20.44
2019-04-14T22:29:48.772Z,20.25
2019-04-14T22:34:52.375Z,20.07
2019-04-14T22:39:57.043Z,19.96
2019-04-14T22:45:00.624Z,19.84
2019-04-14T22:50:05.136Z,19.67
2019-04-14T22:55:08.676Z,19.54
2019-04-14T23:00:19.909Z,19.47
2019-04-14T23:05:25.089Z,19.45
2019-04-14T23:10:30.480Z,19.38
2019-04-14T23:15:51.995Z,19.38
2019-04-14T23:21:12.689Z,19.35
2019-04-14T23:26:16.359Z,19.59
2019-04-14T23:31:20.584Z,19.59
2019-04-14T23:36:24.567Z,20.17
2019-04-14T23:41:28.989Z,21.05
2019-04-14T23:46:32.543Z,22.73
2019-04-14T23:51:36.124Z,22.33
2019-04-14T23:56:39.707Z,21.80
